KISW/ISW METAR and TAF weather

Enter ICAO airport designator
Station Type Date Time Source
KISW METAR 2019/04/25 09:54 UTC NOAA

KISW 250954Z AUTO 18005KT 10SM OVC090 11/04 A2976 RMK AO2 RAB24E33 SLP077 P0000 T01060039 TSNO


Station Type Date Time Source
KISW Decoded METAR 2019/04/25 09:54 UTC NOAA

WI RAPIDS ALEXANDER FIELD, WI, United States (KISW) 44-22N 89-50W 307M
Apr 25, 2019 - 05:54 AM EDT / 2019.04.25 0954 UTC
Wind: from the S (180 degrees) at 6 MPH (5 KT):0
Visibility: 10 mile(s):0
Sky conditions: overcast
Precipitation last hour: A trace
Temperature: 51.1 F (10.6 C)
Dew Point: 39.0 F (3.9 C)
Relative Humidity: 63%
Pressure (altimeter): 29.76 in. Hg (1007 hPa)
ob: KISW 250954Z AUTO 18005KT 10SM OVC090 11/04 A2976 RMK AO2 RAB24E33 SLP077 P0000 T01060039 TSNO
cycle: 10

Station Type Date Time Source
KISW TAF UTC NOAA

Error!

Example: see airport list